sensor_id;sensor_type;location;lat;lon;timestamp;P1;durP1;ratioP1;P2;durP2;ratioP2
67841;SDS011;54642;59.126;37.876;2022-10-26T00:00:03;2.00;;;1.15;;
67841;SDS011;54642;59.126;37.876;2022-10-26T00:02:37;1.80;;;1.23;;
67841;SDS011;54642;59.126;37.876;2022-10-26T00:05:03;2.58;;;1.20;;
67841;SDS011;54642;59.126;37.876;2022-10-26T00:07:29;2.25;;;1.23;;
67841;SDS011;54642;59.126;37.876;2022-10-26T00:09:55;2.10;;;1.10;;
67841;SDS011;54642;59.126;37.876;2022-10-26T00:12:21;6.25;;;3.28;;
67841;SDS011;54642;59.126;37.876;2022-10-26T00:14:47;2.95;;;1.65;;
67841;SDS011;54642;59.126;37.876;2022-10-26T00:17:12;2.92;;;1.00;;
67841;SDS011;54642;59.126;37.876;2022-10-26T00:19:38;2.45;;;1.70;;
67841;SDS011;54642;59.126;37.876;2022-10-26T00:22:04;2.00;;;1.08;;
67841;SDS011;54642;59.126;37.876;2022-10-26T00:24:30;2.10;;;1.42;;
67841;SDS011;54642;59.126;37.876;2022-10-26T00:26:56;2.15;;;1.10;;
67841;SDS011;54642;59.126;37.876;2022-10-26T00:29:21;3.35;;;1.70;;
67841;SDS011;54642;59.126;37.876;2022-10-26T00:31:47;2.15;;;1.38;;
67841;SDS011;54642;59.126;37.876;2022-10-26T00:34:13;1.25;;;0.80;;
67841;SDS011;54642;59.126;37.876;2022-10-26T00:36:39;3.55;;;0.98;;
67841;SDS011;54642;59.126;37.876;2022-10-26T00:39:05;2.65;;;1.45;;
67841;SDS011;54642;59.126;37.876;2022-10-26T00:41:31;2.67;;;0.90;;
67841;SDS011;54642;59.126;37.876;2022-10-26T00:43:58;1.90;;;0.85;;
67841;SDS011;54642;59.126;37.876;2022-10-26T00:46:34;1.80;;;1.00;;
67841;SDS011;54642;59.126;37.876;2022-10-26T00:49:05;1.70;;;1.15;;
67841;SDS011;54642;59.126;37.876;2022-10-26T00:51:47;2.78;;;1.50;;
67841;SDS011;54642;59.126;37.876;2022-10-26T00:54:17;1.40;;;0.80;;
67841;SDS011;54642;59.126;37.876;2022-10-26T00:56:44;4.07;;;1.00;;
67841;SDS011;54642;59.126;37.876;2022-10-26T00:59:14;2.78;;;1.40;;
67841;SDS011;54642;59.126;37.876;2022-10-26T01:01:42;1.35;;;1.00;;
67841;SDS011;54642;59.126;37.876;2022-10-26T01:04:10;1.85;;;1.58;;
67841;SDS011;54642;59.126;37.876;2022-10-26T01:06:37;2.20;;;0.90;;
67841;SDS011;54642;59.126;37.876;2022-10-26T01:09:06;1.70;;;0.95;;
67841;SDS011;54642;59.126;37.876;2022-10-26T01:11:32;2.00;;;0.93;;
67841;SDS011;54642;59.126;37.876;2022-10-26T01:13:58;1.67;;;1.02;;
67841;SDS011;54642;59.126;37.876;2022-10-26T01:18:56;2.30;;;1.63;;
67841;SDS011;54642;59.126;37.876;2022-10-26T01:38:41;2.10;;;0.93;;
67841;SDS011;54642;59.126;37.876;2022-10-26T01:41:28;1.70;;;1.30;;
67841;SDS011;54642;59.126;37.876;2022-10-26T01:44:03;1.20;;;0.80;;
67841;SDS011;54642;59.126;37.876;2022-10-26T01:46:34;2.25;;;1.00;;
67841;SDS011;54642;59.126;37.876;2022-10-26T01:49:06;6.32;;;1.45;;
67841;SDS011;54642;59.126;37.876;2022-10-26T01:51:35;2.88;;;1.20;;
67841;SDS011;54642;59.126;37.876;2022-10-26T01:54:03;1.70;;;1.10;;
67841;SDS011;54642;59.126;37.876;2022-10-26T01:56:30;3.88;;;2.13;;
67841;SDS011;54642;59.126;37.876;2022-10-26T02:07:29;2.28;;;1.20;;
67841;SDS011;54642;59.126;37.876;2022-10-26T02:10:09;1.67;;;1.13;;
67841;SDS011;54642;59.126;37.876;2022-10-26T02:12:38;1.73;;;0.95;;
67841;SDS011;54642;59.126;37.876;2022-10-26T02:17:49;2.03;;;1.27;;
67841;SDS011;54642;59.126;37.876;2022-10-26T02:20:24;1.90;;;1.17;;
67841;SDS011;54642;59.126;37.876;2022-10-26T02:22:58;2.25;;;1.65;;
67841;SDS011;54642;59.126;37.876;2022-10-26T02:25:29;1.70;;;1.33;;
67841;SDS011;54642;59.126;37.876;2022-10-26T02:28:08;3.20;;;1.83;;
67841;SDS011;54642;59.126;37.876;2022-10-26T02:30:38;1.60;;;0.90;;
67841;SDS011;54642;59.126;37.876;2022-10-26T02:33:06;2.00;;;1.02;;
67841;SDS011;54642;59.126;37.876;2022-10-26T02:35:35;1.73;;;1.10;;
67841;SDS011;54642;59.126;37.876;2022-10-26T02:38:03;1.98;;;1.38;;
67841;SDS011;54642;59.126;37.876;2022-10-26T02:40:33;2.38;;;1.80;;
67841;SDS011;54642;59.126;37.876;2022-10-26T02:43:02;5.00;;;1.38;;
67841;SDS011;54642;59.126;37.876;2022-10-26T02:45:36;2.28;;;1.73;;
67841;SDS011;54642;59.126;37.876;2022-10-26T02:48:16;2.47;;;1.25;;
67841;SDS011;54642;59.126;37.876;2022-10-26T02:53:44;1.90;;;1.13;;
67841;SDS011;54642;59.126;37.876;2022-10-26T02:56:19;3.03;;;1.58;;
67841;SDS011;54642;59.126;37.876;2022-10-26T02:58:51;3.60;;;1.52;;
67841;SDS011;54642;59.126;37.876;2022-10-26T03:01:23;2.03;;;1.52;;
67841;SDS011;54642;59.126;37.876;2022-10-26T03:03:49;2.85;;;1.75;;
67841;SDS011;54642;59.126;37.876;2022-10-26T03:06:24;4.43;;;1.60;;
67841;SDS011;54642;59.126;37.876;2022-10-26T03:08:51;3.90;;;2.08;;
67841;SDS011;54642;59.126;37.876;2022-10-26T03:11:17;2.58;;;1.67;;
67841;SDS011;54642;59.126;37.876;2022-10-26T03:13:43;4.20;;;1.95;;
67841;SDS011;54642;59.126;37.876;2022-10-26T03:16:09;2.60;;;1.50;;
67841;SDS011;54642;59.126;37.876;2022-10-26T03:18:35;3.30;;;1.88;;
67841;SDS011;54642;59.126;37.876;2022-10-26T03:21:01;6.70;;;1.95;;
67841;SDS011;54642;59.126;37.876;2022-10-26T03:23:27;4.57;;;2.20;;
67841;SDS011;54642;59.126;37.876;2022-10-26T03:25:57;2.65;;;1.35;;
67841;SDS011;54642;59.126;37.876;2022-10-26T03:28:23;4.80;;;1.83;;
67841;SDS011;54642;59.126;37.876;2022-10-26T03:30:49;3.83;;;2.15;;
67841;SDS011;54642;59.126;37.876;2022-10-26T03:33:15;3.40;;;1.67;;
67841;SDS011;54642;59.126;37.876;2022-10-26T03:35:41;2.47;;;1.35;;
67841;SDS011;54642;59.126;37.876;2022-10-26T03:38:07;1.88;;;1.20;;
67841;SDS011;54642;59.126;37.876;2022-10-26T03:40:33;2.30;;;1.73;;
67841;SDS011;54642;59.126;37.876;2022-10-26T03:43:00;2.15;;;1.10;;
67841;SDS011;54642;59.126;37.876;2022-10-26T03:45:26;2.08;;;1.33;;
67841;SDS011;54642;59.126;37.876;2022-10-26T03:47:52;2.63;;;1.20;;
67841;SDS011;54642;59.126;37.876;2022-10-26T03:50:19;2.85;;;1.50;;
67841;SDS011;54642;59.126;37.876;2022-10-26T03:52:46;2.50;;;1.48;;
67841;SDS011;54642;59.126;37.876;2022-10-26T03:55:13;2.63;;;1.52;;
67841;SDS011;54642;59.126;37.876;2022-10-26T03:57:40;3.47;;;1.60;;
67841;SDS011;54642;59.126;37.876;2022-10-26T04:00:07;2.60;;;1.65;;
67841;SDS011;54642;59.126;37.876;2022-10-26T04:02:41;2.50;;;1.70;;
67841;SDS011;54642;59.126;37.876;2022-10-26T04:05:10;4.80;;;1.60;;
67841;SDS011;54642;59.126;37.876;2022-10-26T04:07:37;2.90;;;1.85;;
67841;SDS011;54642;59.126;37.876;2022-10-26T04:10:03;3.38;;;2.28;;
67841;SDS011;54642;59.126;37.876;2022-10-26T04:12:30;4.88;;;3.22;;
67841;SDS011;54642;59.126;37.876;2022-10-26T04:14:56;4.95;;;2.25;;
67841;SDS011;54642;59.126;37.876;2022-10-26T04:17:25;3.50;;;1.73;;
67841;SDS011;54642;59.126;37.876;2022-10-26T04:19:51;6.50;;;2.67;;
67841;SDS011;54642;59.126;37.876;2022-10-26T04:22:16;2.97;;;1.85;;
67841;SDS011;54642;59.126;37.876;2022-10-26T04:24:42;5.15;;;2.50;;
67841;SDS011;54642;59.126;37.876;2022-10-26T04:27:08;3.38;;;2.28;;
67841;SDS011;54642;59.126;37.876;2022-10-26T04:29:34;4.80;;;2.42;;
67841;SDS011;54642;59.126;37.876;2022-10-26T04:32:00;4.47;;;2.05;;
67841;SDS011;54642;59.126;37.876;2022-10-26T04:34:25;9.10;;;2.47;;
67841;SDS011;54642;59.126;37.876;2022-10-26T04:36:51;3.30;;;2.28;;
67841;SDS011;54642;59.126;37.876;2022-10-26T04:39:17;4.95;;;2.28;;
67841;SDS011;54642;59.126;37.876;2022-10-26T04:41:43;7.80;;;2.28;;
67841;SDS011;54642;59.126;37.876;2022-10-26T04:44:09;3.45;;;2.13;;
67841;SDS011;54642;59.126;37.876;2022-10-26T04:46:34;4.65;;;2.25;;
67841;SDS011;54642;59.126;37.876;2022-10-26T04:49:00;5.22;;;2.17;;
67841;SDS011;54642;59.126;37.876;2022-10-26T04:51:26;9.43;;;2.35;;
67841;SDS011;54642;59.126;37.876;2022-10-26T04:53:53;3.35;;;1.98;;
67841;SDS011;54642;59.126;37.876;2022-10-26T04:56:19;3.25;;;1.85;;
67841;SDS011;54642;59.126;37.876;2022-10-26T04:58:45;4.07;;;2.53;;
67841;SDS011;54642;59.126;37.876;2022-10-26T05:01:11;5.43;;;2.47;;
67841;SDS011;54642;59.126;37.876;2022-10-26T05:03:36;4.18;;;2.55;;
67841;SDS011;54642;59.126;37.876;2022-10-26T05:06:02;4.50;;;2.45;;
67841;SDS011;54642;59.126;37.876;2022-10-26T05:08:28;4.38;;;2.63;;
67841;SDS011;54642;59.126;37.876;2022-10-26T05:10:54;4.40;;;2.08;;
67841;SDS011;54642;59.126;37.876;2022-10-26T05:13:20;4.40;;;2.95;;
67841;SDS011;54642;59.126;37.876;2022-10-26T05:15:47;5.75;;;2.60;;
67841;SDS011;54642;59.126;37.876;2022-10-26T05:18:12;5.90;;;2.40;;
67841;SDS011;54642;59.126;37.876;2022-10-26T05:20:38;3.10;;;2.35;;
67841;SDS011;54642;59.126;37.876;2022-10-26T05:23:09;6.55;;;2.88;;
67841;SDS011;54642;59.126;37.876;2022-10-26T05:25:36;5.20;;;2.95;;
67841;SDS011;54642;59.126;37.876;2022-10-26T05:28:04;7.32;;;2.80;;
67841;SDS011;54642;59.126;37.876;2022-10-26T05:30:32;6.47;;;2.92;;
67841;SDS011;54642;59.126;37.876;2022-10-26T05:32:59;5.85;;;2.92;;
67841;SDS011;54642;59.126;37.876;2022-10-26T05:35:29;4.97;;;2.83;;
67841;SDS011;54642;59.126;37.876;2022-10-26T05:37:56;8.98;;;3.75;;
67841;SDS011;54642;59.126;37.876;2022-10-26T05:40:22;6.32;;;4.30;;
67841;SDS011;54642;59.126;37.876;2022-10-26T05:42:48;14.82;;;7.80;;
67841;SDS011;54642;59.126;37.876;2022-10-26T05:45:15;8.82;;;5.15;;
67841;SDS011;54642;59.126;37.876;2022-10-26T05:47:45;16.33;;;8.60;;
67841;SDS011;54642;59.126;37.876;2022-10-26T05:50:12;10.25;;;5.95;;
67841;SDS011;54642;59.126;37.876;2022-10-26T05:52:42;5.03;;;3.33;;
67841;SDS011;54642;59.126;37.876;2022-10-26T05:55:12;7.05;;;3.60;;
67841;SDS011;54642;59.126;37.876;2022-10-26T05:57:40;5.55;;;3.15;;
67841;SDS011;54642;59.126;37.876;2022-10-26T06:00:08;5.47;;;3.28;;
67841;SDS011;54642;59.126;37.876;2022-10-26T06:06:15;9.95;;;3.83;;
67841;SDS011;54642;59.126;37.876;2022-10-26T06:08:24;6.95;;;3.60;;
67841;SDS011;54642;59.126;37.876;2022-10-26T06:10:52;7.18;;;4.05;;
67841;SDS011;54642;59.126;37.876;2022-10-26T06:13:19;15.07;;;4.30;;
67841;SDS011;54642;59.126;37.876;2022-10-26T06:18:56;6.68;;;3.25;;
67841;SDS011;54642;59.126;37.876;2022-10-26T06:24:32;7.05;;;4.15;;
67841;SDS011;54642;59.126;37.876;2022-10-26T06:27:11;9.02;;;3.80;;
67841;SDS011;54642;59.126;37.876;2022-10-26T06:32:36;8.02;;;3.70;;
67841;SDS011;54642;59.126;37.876;2022-10-26T06:35:30;6.13;;;3.28;;
67841;SDS011;54642;59.126;37.876;2022-10-26T06:38:18;8.32;;;4.05;;
67841;SDS011;54642;59.126;37.876;2022-10-26T06:40:48;9.88;;;4.72;;
67841;SDS011;54642;59.126;37.876;2022-10-26T06:43:23;7.57;;;4.10;;
67841;SDS011;54642;59.126;37.876;2022-10-26T06:45:59;8.15;;;4.85;;
67841;SDS011;54642;59.126;37.876;2022-10-26T06:48:52;8.73;;;4.38;;
67841;SDS011;54642;59.126;37.876;2022-10-26T06:51:42;9.13;;;4.75;;
67841;SDS011;54642;59.126;37.876;2022-10-26T06:57:08;8.02;;;4.78;;
67841;SDS011;54642;59.126;37.876;2022-10-26T06:59:37;9.15;;;4.80;;
67841;SDS011;54642;59.126;37.876;2022-10-26T07:02:10;7.45;;;5.40;;
67841;SDS011;54642;59.126;37.876;2022-10-26T07:04:36;8.00;;;4.13;;
67841;SDS011;54642;59.126;37.876;2022-10-26T07:07:02;7.82;;;3.53;;
67841;SDS011;54642;59.126;37.876;2022-10-26T07:09:28;8.68;;;5.32;;
67841;SDS011;54642;59.126;37.876;2022-10-26T07:11:54;7.32;;;4.20;;
67841;SDS011;54642;59.126;37.876;2022-10-26T07:16:46;8.40;;;4.53;;
67841;SDS011;54642;59.126;37.876;2022-10-26T07:19:12;7.60;;;4.80;;
67841;SDS011;54642;59.126;37.876;2022-10-26T07:21:37;9.20;;;5.15;;
67841;SDS011;54642;59.126;37.876;2022-10-26T07:24:03;10.75;;;5.35;;
67841;SDS011;54642;59.126;37.876;2022-10-26T07:26:29;10.82;;;5.07;;
67841;SDS011;54642;59.126;37.876;2022-10-26T07:28:55;9.02;;;4.75;;
67841;SDS011;54642;59.126;37.876;2022-10-26T07:31:21;9.45;;;4.63;;
67841;SDS011;54642;59.126;37.876;2022-10-26T07:33:47;8.60;;;4.95;;
67841;SDS011;54642;59.126;37.876;2022-10-26T07:38:38;9.88;;;3.72;;
67841;SDS011;54642;59.126;37.876;2022-10-26T07:41:04;9.38;;;5.95;;
67841;SDS011;54642;59.126;37.876;2022-10-26T07:43:30;9.07;;;6.05;;
67841;SDS011;54642;59.126;37.876;2022-10-26T07:45:56;11.30;;;5.30;;
67841;SDS011;54642;59.126;37.876;2022-10-26T07:48:22;8.27;;;4.45;;
67841;SDS011;54642;59.126;37.876;2022-10-26T07:50:48;7.05;;;4.50;;
67841;SDS011;54642;59.126;37.876;2022-10-26T07:53:14;10.20;;;5.63;;
67841;SDS011;54642;59.126;37.876;2022-10-26T07:55:40;12.30;;;6.32;;
67841;SDS011;54642;59.126;37.876;2022-10-26T07:58:06;8.48;;;5.35;;
67841;SDS011;54642;59.126;37.876;2022-10-26T08:00:32;9.70;;;6.50;;
67841;SDS011;54642;59.126;37.876;2022-10-26T08:02:57;15.10;;;6.03;;
67841;SDS011;54642;59.126;37.876;2022-10-26T08:05:23;7.20;;;4.68;;
67841;SDS011;54642;59.126;37.876;2022-10-26T08:07:50;12.95;;;6.65;;
67841;SDS011;54642;59.126;37.876;2022-10-26T08:12:42;10.13;;;6.00;;
67841;SDS011;54642;59.126;37.876;2022-10-26T08:15:08;11.25;;;6.85;;
67841;SDS011;54642;59.126;37.876;2022-10-26T08:17:35;8.80;;;5.35;;
67841;SDS011;54642;59.126;37.876;2022-10-26T08:20:01;10.75;;;6.90;;
67841;SDS011;54642;59.126;37.876;2022-10-26T08:22:27;12.88;;;5.75;;
67841;SDS011;54642;59.126;37.876;2022-10-26T08:24:54;7.47;;;4.60;;
67841;SDS011;54642;59.126;37.876;2022-10-26T08:27:20;9.68;;;5.82;;
67841;SDS011;54642;59.126;37.876;2022-10-26T08:29:46;12.80;;;6.82;;
67841;SDS011;54642;59.126;37.876;2022-10-26T08:34:38;7.45;;;4.53;;
67841;SDS011;54642;59.126;37.876;2022-10-26T08:37:04;9.75;;;5.20;;
67841;SDS011;54642;59.126;37.876;2022-10-26T08:39:29;12.23;;;7.47;;
67841;SDS011;54642;59.126;37.876;2022-10-26T08:45:09;9.60;;;5.55;;
67841;SDS011;54642;59.126;37.876;2022-10-26T08:47:45;11.60;;;5.22;;
67841;SDS011;54642;59.126;37.876;2022-10-26T08:50:30;12.38;;;5.22;;
67841;SDS011;54642;59.126;37.876;2022-10-26T08:53:01;10.75;;;6.05;;
67841;SDS011;54642;59.126;37.876;2022-10-26T08:55:47;10.88;;;5.53;;
67841;SDS011;54642;59.126;37.876;2022-10-26T08:58:19;12.02;;;5.30;;
67841;SDS011;54642;59.126;37.876;2022-10-26T09:00:51;11.07;;;6.40;;
67841;SDS011;54642;59.126;37.876;2022-10-26T09:03:17;12.25;;;5.22;;
67841;SDS011;54642;59.126;37.876;2022-10-26T09:08:28;8.40;;;4.57;;
67841;SDS011;54642;59.126;37.876;2022-10-26T09:13:57;14.63;;;7.13;;
67841;SDS011;54642;59.126;37.876;2022-10-26T09:16:52;8.38;;;5.07;;
67841;SDS011;54642;59.126;37.876;2022-10-26T09:25:28;7.97;;;4.78;;
67841;SDS011;54642;59.126;37.876;2022-10-26T09:28:00;11.95;;;6.05;;
67841;SDS011;54642;59.126;37.876;2022-10-26T09:30:27;8.93;;;5.82;;
67841;SDS011;54642;59.126;37.876;2022-10-26T09:33:02;7.72;;;5.05;;
67841;SDS011;54642;59.126;37.876;2022-10-26T09:35:43;7.68;;;5.60;;
67841;SDS011;54642;59.126;37.876;2022-10-26T09:38:33;7.53;;;4.82;;
67841;SDS011;54642;59.126;37.876;2022-10-26T09:41:09;10.00;;;5.43;;
67841;SDS011;54642;59.126;37.876;2022-10-26T09:43:49;8.05;;;5.25;;
67841;SDS011;54642;59.126;37.876;2022-10-26T09:46:31;8.90;;;4.85;;
67841;SDS011;54642;59.126;37.876;2022-10-26T09:49:05;5.88;;;3.30;;
67841;SDS011;54642;59.126;37.876;2022-10-26T09:51:36;8.05;;;5.07;;
67841;SDS011;54642;59.126;37.876;2022-10-26T09:54:04;19.27;;;6.70;;
67841;SDS011;54642;59.126;37.876;2022-10-26T09:56:42;10.65;;;6.47;;
67841;SDS011;54642;59.126;37.876;2022-10-26T09:59:14;10.48;;;5.47;;
67841;SDS011;54642;59.126;37.876;2022-10-26T10:01:44;8.75;;;5.57;;
67841;SDS011;54642;59.126;37.876;2022-10-26T10:06:42;8.02;;;4.85;;
67841;SDS011;54642;59.126;37.876;2022-10-26T10:09:16;9.02;;;5.47;;
67841;SDS011;54642;59.126;37.876;2022-10-26T10:11:59;12.07;;;6.25;;
67841;SDS011;54642;59.126;37.876;2022-10-26T10:14:36;10.80;;;6.00;;
67841;SDS011;54642;59.126;37.876;2022-10-26T10:17:14;11.40;;;6.45;;
67841;SDS011;54642;59.126;37.876;2022-10-26T10:19:45;9.27;;;4.82;;
67841;SDS011;54642;59.126;37.876;2022-10-26T10:22:17;10.38;;;6.15;;
67841;SDS011;54642;59.126;37.876;2022-10-26T10:24:53;12.25;;;6.20;;
67841;SDS011;54642;59.126;37.876;2022-10-26T10:27:23;9.35;;;5.95;;
67841;SDS011;54642;59.126;37.876;2022-10-26T10:29:51;5.85;;;3.63;;
67841;SDS011;54642;59.126;37.876;2022-10-26T10:32:21;9.63;;;5.90;;
67841;SDS011;54642;59.126;37.876;2022-10-26T10:34:53;7.15;;;4.03;;
67841;SDS011;54642;59.126;37.876;2022-10-26T10:37:24;9.68;;;5.40;;
67841;SDS011;54642;59.126;37.876;2022-10-26T10:40:00;10.38;;;6.35;;
67841;SDS011;54642;59.126;37.876;2022-10-26T10:42:30;8.50;;;4.88;;
67841;SDS011;54642;59.126;37.876;2022-10-26T10:44:59;7.28;;;4.60;;
67841;SDS011;54642;59.126;37.876;2022-10-26T10:47:31;8.85;;;4.95;;
67841;SDS011;54642;59.126;37.876;2022-10-26T10:50:02;9.63;;;6.32;;
67841;SDS011;54642;59.126;37.876;2022-10-26T10:52:49;5.95;;;3.40;;
67841;SDS011;54642;59.126;37.876;2022-10-26T10:55:20;9.75;;;5.60;;
67841;SDS011;54642;59.126;37.876;2022-10-26T10:57:56;9.45;;;5.03;;
67841;SDS011;54642;59.126;37.876;2022-10-26T11:00:39;10.07;;;5.68;;
67841;SDS011;54642;59.126;37.876;2022-10-26T11:03:23;9.75;;;5.88;;
67841;SDS011;54642;59.126;37.876;2022-10-26T11:06:05;11.23;;;6.07;;
67841;SDS011;54642;59.126;37.876;2022-10-26T11:12:16;8.80;;;5.53;;
67841;SDS011;54642;59.126;37.876;2022-10-26T11:14:29;9.88;;;6.15;;
67841;SDS011;54642;59.126;37.876;2022-10-26T11:20:32;6.90;;;4.55;;
67841;SDS011;54642;59.126;37.876;2022-10-26T11:23:07;9.73;;;5.80;;
67841;SDS011;54642;59.126;37.876;2022-10-26T11:28:13;10.40;;;5.90;;
67841;SDS011;54642;59.126;37.876;2022-10-26T11:30:51;11.68;;;6.72;;
67841;SDS011;54642;59.126;37.876;2022-10-26T11:33:25;8.45;;;5.32;;
67841;SDS011;54642;59.126;37.876;2022-10-26T11:36:05;11.60;;;6.50;;
67841;SDS011;54642;59.126;37.876;2022-10-26T11:38:46;13.50;;;5.57;;
67841;SDS011;54642;59.126;37.876;2022-10-26T11:41:29;9.10;;;5.68;;
67841;SDS011;54642;59.126;37.876;2022-10-26T11:44:12;8.38;;;4.50;;
67841;SDS011;54642;59.126;37.876;2022-10-26T11:46:47;10.20;;;5.70;;
67841;SDS011;54642;59.126;37.876;2022-10-26T11:49:22;9.18;;;5.15;;
67841;SDS011;54642;59.126;37.876;2022-10-26T11:52:18;10.20;;;4.80;;
67841;SDS011;54642;59.126;37.876;2022-10-26T11:54:55;8.25;;;5.07;;
67841;SDS011;54642;59.126;37.876;2022-10-26T11:57:32;10.05;;;4.85;;
67841;SDS011;54642;59.126;37.876;2022-10-26T12:00:00;8.68;;;4.95;;
67841;SDS011;54642;59.126;37.876;2022-10-26T12:02:29;8.05;;;4.55;;
67841;SDS011;54642;59.126;37.876;2022-10-26T12:05:05;8.93;;;4.63;;
67841;SDS011;54642;59.126;37.876;2022-10-26T12:07:49;8.18;;;4.65;;
67841;SDS011;54642;59.126;37.876;2022-10-26T12:10:29;8.00;;;4.88;;
67841;SDS011;54642;59.126;37.876;2022-10-26T12:13:00;10.60;;;5.38;;
67841;SDS011;54642;59.126;37.876;2022-10-26T12:15:53;8.20;;;5.35;;
67841;SDS011;54642;59.126;37.876;2022-10-26T12:21:19;8.80;;;6.05;;
67841;SDS011;54642;59.126;37.876;2022-10-26T12:23:55;9.18;;;5.63;;
67841;SDS011;54642;59.126;37.876;2022-10-26T12:28:48;6.53;;;4.32;;
67841;SDS011;54642;59.126;37.876;2022-10-26T12:34:00;7.80;;;4.63;;
67841;SDS011;54642;59.126;37.876;2022-10-26T12:44:36;7.70;;;4.65;;
67841;SDS011;54642;59.126;37.876;2022-10-26T13:09:37;8.65;;;5.25;;
67841;SDS011;54642;59.126;37.876;2022-10-26T13:17:00;7.22;;;4.78;;
67841;SDS011;54642;59.126;37.876;2022-10-26T13:19:35;6.93;;;3.78;;
67841;SDS011;54642;59.126;37.876;2022-10-26T13:22:11;9.07;;;4.78;;
67841;SDS011;54642;59.126;37.876;2022-10-26T13:24:46;11.57;;;5.43;;
67841;SDS011;54642;59.126;37.876;2022-10-26T13:32:39;6.97;;;3.95;;
67841;SDS011;54642;59.126;37.876;2022-10-26T13:35:12;7.38;;;4.80;;
67841;SDS011;54642;59.126;37.876;2022-10-26T13:37:40;9.15;;;4.47;;
67841;SDS011;54642;59.126;37.876;2022-10-26T13:40:10;7.18;;;4.18;;
67841;SDS011;54642;59.126;37.876;2022-10-26T13:42:43;11.82;;;5.63;;
67841;SDS011;54642;59.126;37.876;2022-10-26T13:45:13;10.15;;;5.22;;
67841;SDS011;54642;59.126;37.876;2022-10-26T13:50:46;10.43;;;4.40;;
67841;SDS011;54642;59.126;37.876;2022-10-26T13:58:56;9.70;;;3.28;;
67841;SDS011;54642;59.126;37.876;2022-10-26T14:01:26;8.05;;;4.90;;
67841;SDS011;54642;59.126;37.876;2022-10-26T14:03:53;9.55;;;3.95;;
67841;SDS011;54642;59.126;37.876;2022-10-26T14:09:03;7.15;;;4.18;;
67841;SDS011;54642;59.126;37.876;2022-10-26T14:11:42;6.80;;;3.33;;
67841;SDS011;54642;59.126;37.876;2022-10-26T14:14:13;6.55;;;3.13;;
67841;SDS011;54642;59.126;37.876;2022-10-26T14:16:44;8.88;;;3.85;;
67841;SDS011;54642;59.126;37.876;2022-10-26T14:19:20;7.30;;;4.60;;
67841;SDS011;54642;59.126;37.876;2022-10-26T14:21:50;7.78;;;3.83;;
67841;SDS011;54642;59.126;37.876;2022-10-26T14:24:28;6.18;;;3.15;;
67841;SDS011;54642;59.126;37.876;2022-10-26T14:26:54;4.18;;;2.72;;
67841;SDS011;54642;59.126;37.876;2022-10-26T14:29:21;7.28;;;3.85;;
67841;SDS011;54642;59.126;37.876;2022-10-26T14:31:49;10.05;;;4.18;;
67841;SDS011;54642;59.126;37.876;2022-10-26T14:34:16;8.40;;;4.38;;
67841;SDS011;54642;59.126;37.876;2022-10-26T14:42:22;8.93;;;4.50;;
67841;SDS011;54642;59.126;37.876;2022-10-26T14:44:53;8.48;;;3.70;;
67841;SDS011;54642;59.126;37.876;2022-10-26T14:47:27;10.45;;;5.05;;
67841;SDS011;54642;59.126;37.876;2022-10-26T14:49:55;6.57;;;4.18;;
67841;SDS011;54642;59.126;37.876;2022-10-26T14:52:23;6.55;;;4.22;;
67841;SDS011;54642;59.126;37.876;2022-10-26T14:55:09;8.77;;;4.25;;
67841;SDS011;54642;59.126;37.876;2022-10-26T14:57:39;10.05;;;5.40;;
67841;SDS011;54642;59.126;37.876;2022-10-26T15:00:20;9.75;;;5.35;;
67841;SDS011;54642;59.126;37.876;2022-10-26T15:02:49;6.35;;;3.72;;
67841;SDS011;54642;59.126;37.876;2022-10-26T15:07:58;7.07;;;3.95;;
67841;SDS011;54642;59.126;37.876;2022-10-26T15:13:36;9.02;;;4.68;;
67841;SDS011;54642;59.126;37.876;2022-10-26T15:15:56;5.75;;;3.30;;
67841;SDS011;54642;59.126;37.876;2022-10-26T15:18:34;9.80;;;5.15;;
67841;SDS011;54642;59.126;37.876;2022-10-26T15:21:02;12.73;;;4.40;;
67841;SDS011;54642;59.126;37.876;2022-10-26T15:23:42;5.20;;;3.42;;
67841;SDS011;54642;59.126;37.876;2022-10-26T15:26:09;8.93;;;5.35;;
67841;SDS011;54642;59.126;37.876;2022-10-26T15:33:38;7.90;;;4.78;;
67841;SDS011;54642;59.126;37.876;2022-10-26T15:38:35;7.90;;;4.32;;
67841;SDS011;54642;59.126;37.876;2022-10-26T15:41:02;10.40;;;4.45;;
67841;SDS011;54642;59.126;37.876;2022-10-26T15:43:29;6.65;;;3.88;;
67841;SDS011;54642;59.126;37.876;2022-10-26T15:45:55;6.97;;;4.53;;
67841;SDS011;54642;59.126;37.876;2022-10-26T15:48:24;9.98;;;4.82;;
67841;SDS011;54642;59.126;37.876;2022-10-26T15:50:56;7.55;;;4.30;;
67841;SDS011;54642;59.126;37.876;2022-10-26T15:53:23;7.65;;;4.13;;
67841;SDS011;54642;59.126;37.876;2022-10-26T15:55:54;9.07;;;4.47;;
67841;SDS011;54642;59.126;37.876;2022-10-26T15:58:22;8.60;;;4.03;;
67841;SDS011;54642;59.126;37.876;2022-10-26T16:00:48;7.95;;;4.38;;
67841;SDS011;54642;59.126;37.876;2022-10-26T16:03:18;7.93;;;4.25;;
67841;SDS011;54642;59.126;37.876;2022-10-26T16:08:16;7.65;;;4.28;;
67841;SDS011;54642;59.126;37.876;2022-10-26T16:10:43;8.35;;;4.32;;
67841;SDS011;54642;59.126;37.876;2022-10-26T16:13:13;7.88;;;3.72;;
67841;SDS011;54642;59.126;37.876;2022-10-26T16:15:39;7.53;;;4.40;;
67841;SDS011;54642;59.126;37.876;2022-10-26T16:18:05;6.40;;;3.58;;
67841;SDS011;54642;59.126;37.876;2022-10-26T16:20:31;7.80;;;4.10;;
67841;SDS011;54642;59.126;37.876;2022-10-26T16:22:57;10.43;;;3.55;;
67841;SDS011;54642;59.126;37.876;2022-10-26T16:25:25;7.38;;;3.75;;
67841;SDS011;54642;59.126;37.876;2022-10-26T16:27:52;6.65;;;3.83;;
67841;SDS011;54642;59.126;37.876;2022-10-26T16:30:19;6.05;;;3.47;;
67841;SDS011;54642;59.126;37.876;2022-10-26T16:32:46;10.88;;;4.72;;
67841;SDS011;54642;59.126;37.876;2022-10-26T16:35:12;7.68;;;4.68;;
67841;SDS011;54642;59.126;37.876;2022-10-26T16:37:38;7.47;;;4.13;;
67841;SDS011;54642;59.126;37.876;2022-10-26T16:40:05;6.68;;;4.03;;
67841;SDS011;54642;59.126;37.876;2022-10-26T16:42:32;8.27;;;4.28;;
67841;SDS011;54642;59.126;37.876;2022-10-26T16:44:58;7.60;;;4.53;;
67841;SDS011;54642;59.126;37.876;2022-10-26T16:47:24;10.07;;;5.32;;
67841;SDS011;54642;59.126;37.876;2022-10-26T16:49:50;6.38;;;3.88;;
67841;SDS011;54642;59.126;37.876;2022-10-26T16:52:16;8.57;;;3.72;;
67841;SDS011;54642;59.126;37.876;2022-10-26T16:54:42;9.50;;;4.47;;
67841;SDS011;54642;59.126;37.876;2022-10-26T16:57:08;7.35;;;4.43;;
67841;SDS011;54642;59.126;37.876;2022-10-26T16:59:35;11.02;;;4.30;;
67841;SDS011;54642;59.126;37.876;2022-10-26T17:02:01;7.15;;;4.53;;
67841;SDS011;54642;59.126;37.876;2022-10-26T17:04:27;6.78;;;4.30;;
67841;SDS011;54642;59.126;37.876;2022-10-26T17:06:53;7.82;;;3.88;;
67841;SDS011;54642;59.126;37.876;2022-10-26T17:09:18;7.43;;;4.13;;
67841;SDS011;54642;59.126;37.876;2022-10-26T17:11:44;8.73;;;4.57;;
67841;SDS011;54642;59.126;37.876;2022-10-26T17:14:10;7.15;;;3.47;;
67841;SDS011;54642;59.126;37.876;2022-10-26T17:16:36;9.52;;;4.03;;
67841;SDS011;54642;59.126;37.876;2022-10-26T17:19:02;8.27;;;4.65;;
67841;SDS011;54642;59.126;37.876;2022-10-26T17:21:31;9.07;;;4.70;;
67841;SDS011;54642;59.126;37.876;2022-10-26T17:23:59;8.80;;;4.78;;
67841;SDS011;54642;59.126;37.876;2022-10-26T17:26:26;9.45;;;4.63;;
67841;SDS011;54642;59.126;37.876;2022-10-26T17:28:53;10.02;;;4.50;;
67841;SDS011;54642;59.126;37.876;2022-10-26T17:31:21;8.25;;;4.80;;
67841;SDS011;54642;59.126;37.876;2022-10-26T17:33:48;9.63;;;5.47;;
67841;SDS011;54642;59.126;37.876;2022-10-26T17:36:16;8.55;;;4.95;;